Time;durP1;ratioP1;P1;durP2;ratioP2;P2;SDS_P1;SDS_P2;PMS_P1;PMS_P2;Temp;Humidity;BMP_temperature;BMP_pressure;BME280_temperature;BME280_humidity;BME280_pressure;Samples;Min_cycle;Max_cycle;Signal;HPM_P1;HPM_P2
2024/02/07 00:00:57;;;;;;;19.30;6.93;;;11.90;95.80;;;;;;5002554;28;20060;-76
2024/02/07 00:03:23;;;;;;;22.90;7.63;;;11.90;95.90;;;;;;5000660;28;20469;-74
2024/02/07 00:05:49;;;;;;;17.23;7.40;;;11.80;96.10;;;;;;4996037;28;20084;-75
2024/02/07 00:08:16;;;;;;;19.45;7.85;;;11.80;96.10;;;;;;5000110;28;20080;-75
2024/02/07 00:10:41;;;;;;;21.17;7.18;;;11.80;96.10;;;;;;5002858;28;20033;-76
2024/02/07 00:13:07;;;;;;;18.45;7.15;;;11.80;96.10;;;;;;4997971;28;20026;-77
2024/02/07 00:15:33;;;;;;;17.08;7.78;;;11.70;96.20;;;;;;4992366;28;20471;-76
2024/02/07 00:17:58;;;;;;;15.35;7.28;;;11.80;96.30;;;;;;4995089;28;20388;-76
2024/02/07 00:20:24;;;;;;;22.48;8.50;;;11.80;96.30;;;;;;4997476;28;20553;-75
2024/02/07 00:22:50;;;;;;;14.52;6.70;;;11.70;96.40;;;;;;4999083;28;20022;-76
2024/02/07 00:25:16;;;;;;;17.90;7.38;;;11.80;96.50;;;;;;4998515;28;20430;-77
2024/02/07 00:27:41;;;;;;;17.45;7.78;;;11.70;96.40;;;;;;4992822;28;20053;-75
2024/02/07 00:30:07;;;;;;;21.67;7.80;;;11.80;96.30;;;;;;4995558;28;20378;-75
2024/02/07 00:32:33;;;;;;;19.10;7.18;;;11.80;96.20;;;;;;4997727;28;20041;-76
2024/02/07 00:34:59;;;;;;;17.90;7.43;;;11.70;96.20;;;;;;4996899;28;20041;-76
2024/02/07 00:37:24;;;;;;;19.00;7.68;;;11.80;96.20;;;;;;4994099;28;20093;-75
2024/02/07 00:39:50;;;;;;;17.08;7.32;;;11.80;96.10;;;;;;4994612;28;20359;-75
2024/02/07 00:42:16;;;;;;;17.23;7.45;;;11.80;96.10;;;;;;4995382;28;20676;-76
2024/02/07 00:44:41;;;;;;;21.40;7.60;;;11.70;96.20;;;;;;4997939;28;20046;-75
2024/02/07 00:47:08;;;;;;;16.70;7.18;;;11.80;96.10;;;;;;4996113;28;20458;-76
2024/02/07 00:49:33;;;;;;;17.90;7.82;;;11.70;96.20;;;;;;4995669;28;20038;-75
2024/02/07 00:51:59;;;;;;;18.23;7.57;;;11.80;96.20;;;;;;4999339;28;20486;-76
2024/02/07 00:54:25;;;;;;;17.88;7.82;;;11.80;96.30;;;;;;4993443;28;20085;-76
2024/02/07 00:56:54;;;;;;;18.75;7.75;;;11.70;96.30;;;;;;4996088;28;20049;-75
2024/02/07 00:59:20;;;;;;;18.80;7.38;;;11.70;96.40;;;;;;4992517;28;20369;-75
2024/02/07 01:01:45;;;;;;;23.38;8.48;;;11.70;96.40;;;;;;5000296;28;20085;-75
2024/02/07 01:04:11;;;;;;;17.63;7.60;;;11.70;96.40;;;;;;4994208;28;20042;-75
2024/02/07 01:06:38;;;;;;;19.60;7.88;;;11.70;96.50;;;;;;4991819;28;20034;-75
2024/02/07 01:09:04;;;;;;;19.92;7.60;;;11.70;96.60;;;;;;5003208;28;20037;-74
2024/02/07 01:11:30;;;;;;;18.63;8.43;;;11.70;96.60;;;;;;4996879;28;20414;-75
2024/02/07 01:13:56;;;;;;;22.40;8.57;;;11.70;96.60;;;;;;4991830;28;20034;-75
2024/02/07 01:16:22;;;;;;;18.95;7.93;;;11.70;96.60;;;;;;4999176;28;20040;-75
2024/02/07 01:18:50;;;;;;;20.60;8.35;;;11.70;96.60;;;;;;5007331;28;20014;-74
2024/02/07 01:21:17;;;;;;;22.20;8.93;;;11.70;96.50;;;;;;4988048;28;20029;-76
2024/02/07 01:23:46;;;;;;;21.90;8.30;;;11.80;96.50;;;;;;4999978;28;20472;-75
2024/02/07 01:26:14;;;;;;;24.13;8.68;;;11.80;96.30;;;;;;4999938;28;20112;-76
2024/02/07 01:28:40;;;;;;;19.02;8.00;;;11.80;96.30;;;;;;4996169;28;20030;-74
2024/02/07 01:31:06;;;;;;;23.75;8.35;;;11.70;96.30;;;;;;5000723;28;20478;-75
2024/02/07 01:33:32;;;;;;;19.92;8.15;;;11.80;96.30;;;;;;4998539;28;20018;-75
2024/02/07 01:35:58;;;;;;;17.58;7.68;;;11.80;96.20;;;;;;4998476;28;20053;-75
2024/02/07 01:38:24;;;;;;;19.88;8.95;;;11.80;96.10;;;;;;4997840;28;20455;-76
2024/02/07 01:40:49;;;;;;;19.15;8.23;;;11.80;96.10;;;;;;5001022;28;20034;-75
2024/02/07 01:43:16;;;;;;;19.92;8.40;;;11.80;96.10;;;;;;4998009;28;20018;-75
2024/02/07 01:45:42;;;;;;;18.95;8.10;;;11.80;96.20;;;;;;4997021;28;20352;-75
2024/02/07 01:48:09;;;;;;;17.23;7.50;;;11.80;96.30;;;;;;4999742;28;20018;-76
2024/02/07 01:50:39;;;;;;;22.38;7.35;;;11.70;96.40;;;;;;4998773;28;20429;-76
2024/02/07 01:53:07;;;;;;;16.45;7.13;;;11.70;96.40;;;;;;4997031;28;20154;-76
2024/02/07 01:55:35;;;;;;;17.45;8.00;;;11.70;96.40;;;;;;5001974;28;20149;-74
2024/02/07 01:58:02;;;;;;;18.10;7.60;;;11.70;96.40;;;;;;4998768;28;20029;-74
2024/02/07 02:00:30;;;;;;;18.23;7.22;;;11.70;96.40;;;;;;5001610;28;20041;-76
2024/02/07 02:02:58;;;;;;;14.05;6.50;;;11.70;96.50;;;;;;4993997;28;20108;-75
2024/02/07 02:05:23;;;;;;;14.60;7.85;;;11.70;96.50;;;;;;4998640;28;20030;-75
2024/02/07 02:07:49;;;;;;;15.45;6.63;;;11.70;96.50;;;;;;5002950;28;20431;-75
2024/02/07 02:10:15;;;;;;;17.00;6.95;;;11.70;96.50;;;;;;4999971;28;20042;-74
2024/02/07 02:12:42;;;;;;;17.08;7.10;;;11.70;96.60;;;;;;4998915;28;20018;-74
2024/02/07 02:15:10;;;;;;;15.18;6.60;;;11.70;96.70;;;;;;4998575;28;20072;-74
2024/02/07 02:17:36;;;;;;;15.50;6.68;;;11.70;96.80;;;;;;5004953;28;20038;-74
2024/02/07 02:20:04;;;;;;;19.95;7.10;;;11.70;96.70;;;;;;4997411;28;20117;-74
2024/02/07 02:23:05;;;;;;;18.15;7.10;;;11.70;96.70;;;;;;5006090;28;20076;-75
2024/02/07 02:26:36;;;;;;;14.07;6.40;;;11.70;96.80;;;;;;4998194;28;20545;-75
2024/02/07 02:29:36;;;;;;;12.70;6.30;;;11.70;96.90;;;;;;4997627;28;20038;-75
2024/02/07 02:32:06;;;;;;;14.13;6.40;;;11.60;96.80;;;;;;5002645;28;20065;-76
2024/02/07 02:34:33;;;;;;;11.85;5.60;;;11.70;96.80;;;;;;4994069;28;20084;-75
2024/02/07 02:37:00;;;;;;;14.23;5.95;;;11.70;96.70;;;;;;4999779;28;20045;-75
2024/02/07 02:39:28;;;;;;;13.45;5.78;;;11.60;96.70;;;;;;4998464;28;20034;-75
2024/02/07 02:41:54;;;;;;;14.32;6.47;;;11.60;96.80;;;;;;5000592;28;20032;-75
2024/02/07 02:44:20;;;;;;;12.90;6.47;;;11.60;96.80;;;;;;4992840;28;20041;-75
2024/02/07 02:46:46;;;;;;;16.38;6.03;;;11.60;96.80;;;;;;4996713;28;20477;-75
2024/02/07 02:49:12;;;;;;;12.13;5.95;;;11.70;96.90;;;;;;4993730;28;20030;-75
2024/02/07 02:51:37;;;;;;;13.35;5.88;;;11.60;96.90;;;;;;4995318;28;20013;-75
2024/02/07 02:54:03;;;;;;;14.90;6.75;;;11.70;96.90;;;;;;4997429;28;20486;-74
2024/02/07 02:56:31;;;;;;;13.48;6.32;;;11.60;96.90;;;;;;5002633;28;20021;-74
2024/02/07 02:58:57;;;;;;;12.90;6.43;;;11.70;97.00;;;;;;5001382;28;20072;-74
2024/02/07 03:01:23;;;;;;;12.55;5.80;;;11.60;97.10;;;;;;4993127;28;20022;-74
2024/02/07 03:03:55;;;;;;;14.45;6.63;;;11.60;97.00;;;;;;4997152;28;20044;-75
2024/02/07 03:06:37;;;;;;;12.27;6.28;;;11.60;97.10;;;;;;4995941;28;20018;-75
2024/02/07 03:09:19;;;;;;;11.77;5.93;;;11.70;97.00;;;;;;4997903;28;20030;-75
2024/02/07 03:11:45;;;;;;;12.05;5.43;;;11.60;96.90;;;;;;4997014;28;20018;-75
2024/02/07 03:14:11;;;;;;;14.32;5.50;;;11.70;96.80;;;;;;4997224;28;20096;-75
2024/02/07 03:16:36;;;;;;;11.65;5.40;;;11.60;96.80;;;;;;5008762;28;20030;-74
2024/02/07 03:19:02;;;;;;;13.40;6.10;;;11.70;96.90;;;;;;4997043;28;20041;-73
2024/02/07 03:21:28;;;;;;;13.45;5.80;;;11.60;96.90;;;;;;4990225;28;20045;-74
2024/02/07 03:23:56;;;;;;;13.85;5.95;;;11.70;96.90;;;;;;4995658;28;20042;-75
2024/02/07 03:26:25;;;;;;;12.85;5.78;;;11.70;96.90;;;;;;4991183;28;20057;-74
2024/02/07 03:28:51;;;;;;;12.25;6.20;;;11.60;97.00;;;;;;4996509;28;20022;-74
2024/02/07 03:31:18;;;;;;;15.65;6.75;;;11.60;97.10;;;;;;4992122;28;20026;-74
2024/02/07 03:33:43;;;;;;;12.10;6.60;;;11.60;97.10;;;;;;4996042;28;20073;-74
2024/02/07 03:36:10;;;;;;;12.32;6.53;;;11.60;97.10;;;;;;4996585;28;20057;-74
2024/02/07 03:38:36;;;;;;;11.98;5.93;;;11.60;97.20;;;;;;4999613;28;20014;-74
2024/02/07 03:41:02;;;;;;;13.45;6.20;;;11.60;97.20;;;;;;4994526;28;20473;-74
2024/02/07 03:43:27;;;;;;;15.43;6.65;;;11.60;97.30;;;;;;4993992;28;20029;-74
2024/02/07 03:45:53;;;;;;;13.15;5.78;;;11.70;97.20;;;;;;4996317;28;20034;-76
2024/02/07 03:48:22;;;;;;;11.57;5.90;;;11.60;97.20;;;;;;4989849;28;20038;-76
2024/02/07 03:50:48;;;;;;;13.32;6.30;;;11.60;97.30;;;;;;4993341;28;20030;-77
2024/02/07 03:53:15;;;;;;;12.18;6.00;;;11.60;97.40;;;;;;4992801;28;20099;-77
2024/02/07 03:55:41;;;;;;;12.15;5.97;;;11.60;97.40;;;;;;4999343;28;20058;-74
2024/02/07 03:58:08;;;;;;;15.13;6.93;;;11.60;97.40;;;;;;4996523;28;20092;-73
2024/02/07 04:00:34;;;;;;;8.88;4.00;;;11.60;97.70;;;;;;4995402;28;20045;-74
2024/02/07 04:02:59;;;;;;;6.93;2.00;;;11.30;96.50;;;;;;4998531;28;20022;-76
2024/02/07 04:05:25;;;;;;;4.50;2.05;;;10.10;94.20;;;;;;4994163;28;20117;-77
2024/02/07 04:07:51;;;;;;;4.88;2.65;;;9.40;94.50;;;;;;4995844;28;20065;-75
2024/02/07 04:10:18;;;;;;;6.05;2.70;;;9.00;94.60;;;;;;5002500;28;20069;-77
2024/02/07 05:15:43;;;;;;;11.98;8.48;;;6.50;97.20;;;;;;4998414;28;20041;-76
2024/02/07 05:18:09;;;;;;;12.95;7.50;;;6.30;96.80;;;;;;4996521;28;20026;-76
2024/02/07 05:20:35;;;;;;;14.73;8.20;;;6.40;97.10;;;;;;4999963;28;20073;-76
2024/02/07 05:23:00;;;;;;;12.40;7.70;;;6.30;97.20;;;;;;4999243;28;20022;-76
2024/02/07 05:25:26;;;;;;;11.48;7.85;;;6.20;97.10;;;;;;5005000;28;20393;-76
2024/02/07 05:27:52;;;;;;;12.05;7.50;;;6.20;97.40;;;;;;4998573;28;20019;-76
2024/02/07 05:30:18;;;;;;;14.20;7.85;;;6.30;97.50;;;;;;5000757;28;20353;-76
2024/02/07 05:32:44;;;;;;;12.70;8.15;;;6.20;97.50;;;;;;5001019;28;20038;-76
2024/02/07 05:35:10;;;;;;;12.38;8.13;;;6.30;97.70;;;;;;4999088;28;20038;-76
2024/02/07 05:37:37;;;;;;;12.95;7.80;;;6.40;97.70;;;;;;5004419;28;20032;-75
2024/02/07 05:40:03;;;;;;;10.70;6.60;;;6.50;97.60;;;;;;4994876;28;20116;-76
2024/02/07 05:42:28;;;;;;;13.02;7.05;;;6.30;97.40;;;;;;4996613;28;20029;-76
2024/02/07 05:44:54;;;;;;;10.80;5.70;;;6.40;97.50;;;;;;4992702;28;20084;-75
2024/02/07 05:47:20;;;;;;;11.27;5.22;;;6.30;97.20;;;;;;4997485;28;20038;-77
2024/02/07 05:49:46;;;;;;;11.25;4.50;;;6.30;97.20;;;;;;5002294;28;20042;-77
2024/02/07 05:52:14;;;;;;;8.90;3.97;;;6.20;96.90;;;;;;4997441;28;20389;-75
2024/02/07 05:54:39;;;;;;;8.52;3.40;;;6.10;96.80;;;;;;4994133;28;20038;-76
2024/02/07 05:57:05;;;;;;;7.97;3.28;;;6.10;96.90;;;;;;4999287;28;20037;-76
2024/02/07 05:59:31;;;;;;;6.95;3.30;;;6.10;96.90;;;;;;4996447;28;20494;-76
2024/02/07 06:01:57;;;;;;;7.35;3.60;;;6.10;96.90;;;;;;4996898;28;20029;-77
2024/02/07 06:04:22;;;;;;;8.25;3.50;;;6.20;96.80;;;;;;4996698;28;20099;-74
2024/02/07 06:06:51;;;;;;;7.57;3.38;;;6.10;96.70;;;;;;4993006;28;20363;-75
2024/02/07 06:09:17;;;;;;;6.25;3.50;;;6.10;96.80;;;;;;4996876;28;20125;-75
2024/02/07 06:11:43;;;;;;;8.60;3.75;;;6.10;96.80;;;;;;4992872;28;20393;-76
2024/02/07 06:14:10;;;;;;;12.80;4.47;;;6.10;96.70;;;;;;4997326;28;20058;-75
2024/02/07 06:16:37;;;;;;;12.13;4.63;;;6.00;96.70;;;;;;4994546;28;20033;-76
2024/02/07 06:19:03;;;;;;;8.48;4.50;;;6.00;96.80;;;;;;4995250;28;20117;-74
2024/02/07 06:21:29;;;;;;;12.18;5.30;;;6.00;97.00;;;;;;4998109;28;20064;-75
2024/02/07 06:23:55;;;;;;;12.18;6.50;;;6.00;97.20;;;;;;4998148;28;20552;-77
2024/02/07 06:26:21;;;;;;;13.23;7.25;;;6.00;97.20;;;;;;4989804;28;21126;-75
2024/02/07 06:28:46;;;;;;;13.98;6.97;;;6.00;97.20;;;;;;4998951;28;20018;-75
2024/02/07 06:31:12;;;;;;;13.27;7.70;;;6.00;97.20;;;;;;4997324;28;20041;-76
2024/02/07 06:33:39;;;;;;;16.27;8.93;;;5.90;97.30;;;;;;4997832;28;20033;-75
2024/02/07 06:36:05;;;;;;;14.25;8.20;;;5.80;97.60;;;;;;4993320;28;20045;-75
2024/02/07 06:38:30;;;;;;;18.67;9.48;;;5.70;97.70;;;;;;4997778;28;20379;-73
2024/02/07 06:40:56;;;;;;;15.45;9.55;;;5.80;97.90;;;;;;4994486;28;20048;-75
2024/02/07 06:43:22;;;;;;;15.63;10.23;;;5.80;98.00;;;;;;4997516;28;20117;-77
2024/02/07 06:45:48;;;;;;;17.02;11.07;;;5.90;98.10;;;;;;4995569;28;20026;-74
2024/02/07 06:48:13;;;;;;;17.27;10.85;;;5.90;98.00;;;;;;4996724;28;20467;-74
2024/02/07 06:50:39;;;;;;;20.00;11.45;;;6.00;98.10;;;;;;4996778;28;20433;-73
2024/02/07 06:53:05;;;;;;;18.70;12.00;;;6.00;97.90;;;;;;4994738;28;20105;-74
2024/02/07 06:55:31;;;;;;;18.13;12.35;;;5.80;97.80;;;;;;4995619;28;20525;-79
2024/02/07 06:57:56;;;;;;;21.95;14.60;;;5.80;97.90;;;;;;4996778;28;20014;-77
2024/02/07 07:00:22;;;;;;;28.10;15.02;;;5.80;98.00;;;;;;5000475;28;20029;-73
2024/02/07 07:02:47;;;;;;;23.30;15.52;;;5.80;98.10;;;;;;4992061;28;20033;-75
2024/02/07 07:05:13;;;;;;;22.88;15.95;;;5.80;98.10;;;;;;4997334;28;20076;-75
2024/02/07 07:07:39;;;;;;;23.13;16.30;;;5.90;98.20;;;;;;4992126;28;20390;-74
2024/02/07 07:10:05;;;;;;;23.48;17.20;;;5.90;98.20;;;;;;4996509;28;20134;-75
2024/02/07 07:12:30;;;;;;;21.00;15.70;;;5.90;98.30;;;;;;4994031;28;20053;-75
2024/02/07 07:14:56;;;;;;;16.17;9.35;;;5.90;98.30;;;;;;4992457;28;20122;-75
2024/02/07 07:17:22;;;;;;;13.00;8.32;;;5.70;98.20;;;;;;4998624;28;20053;-74
2024/02/07 07:19:47;;;;;;;13.57;6.63;;;5.60;98.10;;;;;;4996113;28;20030;-76
2024/02/07 07:22:13;;;;;;;10.32;6.18;;;5.60;98.10;;;;;;5000741;28;20048;-77
2024/02/07 07:24:38;;;;;;;12.65;5.47;;;5.50;98.00;;;;;;5014269;28;20477;-74
2024/02/07 07:27:05;;;;;;;13.43;7.28;;;5.60;98.10;;;;;;5033668;28;20057;-74
2024/02/07 07:29:31;;;;;;;11.18;5.93;;;5.60;98.00;;;;;;5001712;28;20355;-73
2024/02/07 07:31:57;;;;;;;17.40;9.02;;;5.60;98.00;;;;;;4997228;28;20097;-77
2024/02/07 07:34:23;;;;;;;14.02;6.47;;;5.60;98.00;;;;;;4996292;28;20088;-78
2024/02/07 07:36:51;;;;;;;14.93;6.70;;;5.60;97.90;;;;;;4993096;28;20062;-76
2024/02/07 07:39:16;;;;;;;12.25;5.50;;;5.60;97.90;;;;;;4995484;28;20900;-74
2024/02/07 07:41:42;;;;;;;11.50;5.30;;;5.60;97.80;;;;;;4995115;28;20020;-76
2024/02/07 07:44:08;;;;;;;17.55;5.93;;;5.60;97.70;;;;;;5000418;28;20696;-73
2024/02/07 07:46:33;;;;;;;28.40;8.70;;;5.50;97.60;;;;;;4993994;28;20101;-74
2024/02/07 07:48:59;;;;;;;14.80;6.90;;;5.60;97.80;;;;;;4998709;28;20034;-74
2024/02/07 07:51:26;;;;;;;16.73;7.45;;;5.50;97.70;;;;;;4995914;28;20084;-76
2024/02/07 07:53:52;;;;;;;16.67;8.90;;;5.50;97.80;;;;;;4997500;28;20100;-77
2024/02/07 07:56:20;;;;;;;14.23;9.27;;;5.40;97.80;;;;;;5002822;28;20073;-75
2024/02/07 07:58:49;;;;;;;23.27;10.65;;;5.40;97.90;;;;;;5011052;28;20033;-75
2024/02/07 08:01:15;;;;;;;20.20;11.10;;;5.50;98.00;;;;;;5012345;28;20028;-75
2024/02/07 08:03:41;;;;;;;22.80;11.77;;;5.40;98.00;;;;;;4991956;28;20113;-74
2024/02/07 08:06:09;;;;;;;21.60;12.10;;;5.50;98.10;;;;;;4994234;28;20080;-74
2024/02/07 08:08:35;;;;;;;17.17;11.15;;;5.30;98.00;;;;;;4993607;28;20037;-73
2024/02/07 08:11:02;;;;;;;15.75;9.60;;;5.40;98.20;;;;;;4997467;28;20509;-73
2024/02/07 08:13:28;;;;;;;19.90;9.55;;;5.50;98.30;;;;;;4997356;28;20029;-74
2024/02/07 08:15:54;;;;;;;13.10;6.90;;;5.50;98.20;;;;;;5008647;28;20092;-74
2024/02/07 08:18:20;;;;;;;19.38;7.95;;;5.50;98.20;;;;;;4992262;28;20410;-73
2024/02/07 08:20:45;;;;;;;20.38;9.10;;;5.50;98.10;;;;;;4996260;28;20095;-73
2024/02/07 08:23:12;;;;;;;19.30;7.00;;;5.50;98.10;;;;;;4994101;28;20026;-73
2024/02/07 08:25:38;;;;;;;15.50;7.35;;;5.60;98.10;;;;;;4996874;28;20602;-74
2024/02/07 08:28:04;;;;;;;24.55;10.88;;;5.60;98.00;;;;;;4998835;28;20049;-73
2024/02/07 08:30:29;;;;;;;22.63;8.57;;;5.60;97.90;;;;;;4998235;28;20046;-73
2024/02/07 08:32:56;;;;;;;19.55;7.85;;;5.50;97.80;;;;;;5000145;28;20470;-73
2024/02/07 08:35:21;;;;;;;18.80;9.27;;;5.50;97.70;;;;;;4998691;28;20384;-74
2024/02/07 08:37:47;;;;;;;19.02;8.45;;;5.40;97.60;;;;;;5002354;28;20029;-73
2024/02/07 08:40:13;;;;;;;18.45;7.93;;;5.50;97.70;;;;;;4993852;28;20145;-74
2024/02/07 08:42:38;;;;;;;20.83;8.63;;;5.60;97.70;;;;;;4999739;28;20045;-74
2024/02/07 08:45:05;;;;;;;16.73;8.02;;;5.60;97.60;;;;;;4994305;28;20107;-74
2024/02/07 08:47:30;;;;;;;27.75;9.30;;;5.60;97.60;;;;;;4999716;28;20164;-74
2024/02/07 08:49:56;;;;;;;18.48;9.75;;;5.60;97.60;;;;;;4999207;28;20046;-74
2024/02/07 08:52:22;;;;;;;19.70;9.85;;;5.70;97.60;;;;;;5000591;28;20060;-73
2024/02/07 08:54:48;;;;;;;23.02;11.43;;;5.70;97.60;;;;;;5031202;28;20033;-73
2024/02/07 08:57:14;;;;;;;19.98;10.52;;;5.60;97.70;;;;;;5008211;28;20580;-75
2024/02/07 08:59:40;;;;;;;20.85;10.02;;;5.70;97.70;;;;;;4995125;28;20048;-74
2024/02/07 09:02:09;;;;;;;16.77;9.68;;;5.70;97.70;;;;;;4997743;28;20026;-73
2024/02/07 09:04:34;;;;;;;22.50;10.45;;;5.80;97.80;;;;;;4981722;28;20034;-75
2024/02/07 09:07:00;;;;;;;17.90;8.50;;;5.80;97.80;;;;;;4998774;28;20071;-74
2024/02/07 09:09:26;;;;;;;25.80;8.00;;;5.90;97.70;;;;;;5000182;28;20461;-75
2024/02/07 09:11:51;;;;;;;21.15;6.93;;;5.90;97.60;;;;;;4985119;28;20026;-74
2024/02/07 09:14:18;;;;;;;14.02;6.45;;;5.90;97.40;;;;;;4981563;28;20037;-75
2024/02/07 09:16:44;;;;;;;15.68;6.68;;;5.90;97.30;;;;;;4985927;28;20061;-74
2024/02/07 09:19:09;;;;;;;19.38;7.05;;;5.90;97.10;;;;;;4999212;28;20452;-74
2024/02/07 09:21:35;;;;;;;23.77;7.07;;;6.00;97.30;;;;;;5001406;28;20335;-75
2024/02/07 09:24:01;;;;;;;19.67;7.30;;;6.00;97.20;;;;;;4998129;28;20121;-74
2024/02/07 09:26:33;;;;;;;18.52;8.27;;;6.00;97.00;;;;;;4999006;28;20202;-74
2024/02/07 09:29:01;;;;;;;17.98;6.57;;;6.10;97.10;;;;;;5002146;28;20060;-73
2024/02/07 09:31:27;;;;;;;17.10;6.63;;;6.10;97.00;;;;;;4997525;28;20025;-75
2024/02/07 09:33:52;;;;;;;20.40;7.22;;;6.00;96.70;;;;;;4997584;28;20041;-75
2024/02/07 09:36:18;;;;;;;19.40;7.63;;;6.00;96.80;;;;;;4992648;28;20046;-74
2024/02/07 09:38:43;;;;;;;21.98;8.32;;;5.80;96.70;;;;;;4998931;28;20018;-72
2024/02/07 09:41:14;;;;;;;19.20;8.07;;;5.70;96.80;;;;;;5003243;28;20049;-74
2024/02/07 09:43:40;;;;;;;15.07;7.47;;;5.60;96.90;;;;;;5014667;28;20030;-72
2024/02/07 09:46:10;;;;;;;20.10;8.23;;;5.60;97.10;;;;;;5015631;28;20029;-73
2024/02/07 09:48:36;;;;;;;21.75;8.80;;;5.60;97.30;;;;;;5014936;28;20022;-74
2024/02/07 09:51:02;;;;;;;16.95;7.97;;;5.70;97.40;;;;;;4997250;28;20044;-75
2024/02/07 09:53:32;;;;;;;20.35;7.35;;;5.70;97.30;;;;;;4997369;28;20026;-74
2024/02/07 09:55:58;;;;;;;14.98;7.03;;;5.70;97.30;;;;;;4974450;28;20047;-74
2024/02/07 09:58:24;;;;;;;22.05;7.32;;;5.60;97.30;;;;;;4996612;28;20037;-74
2024/02/07 10:00:54;;;;;;;16.33;6.60;;;5.70;97.20;;;;;;4996111;28;20467;-75
2024/02/07 10:03:24;;;;;;;21.15;8.93;;;5.70;97.10;;;;;;4989070;28;20101;-75
2024/02/07 10:06:00;;;;;;;19.17;7.00;;;5.70;97.10;;;;;;4991435;28;20073;-74
2024/02/07 10:08:26;;;;;;;18.02;8.57;;;5.60;97.00;;;;;;4987066;28;20163;-74
2024/02/07 10:10:53;;;;;;;18.80;8.98;;;5.60;97.20;;;;;;4992076;28;20769;-75
2024/02/07 10:13:19;;;;;;;20.75;9.85;;;5.60;97.30;;;;;;4997276;28;20057;-75
2024/02/07 10:15:47;;;;;;;21.25;10.10;;;5.60;97.50;;;;;;4999294;28;20470;-75
2024/02/07 10:18:13;;;;;;;21.88;9.55;;;5.60;97.60;;;;;;4998045;28;20466;-73
2024/02/07 10:20:39;;;;;;;20.95;11.68;;;5.80;97.80;;;;;;4998447;28;20026;-74
2024/02/07 10:23:06;;;;;;;20.95;11.95;;;5.90;97.80;;;;;;5002272;28;20021;-74
2024/02/07 10:25:32;;;;;;;15.95;9.35;;;6.00;97.80;;;;;;5001866;28;20352;-73
2024/02/07 10:28:05;;;;;;;15.77;7.78;;;6.10;97.60;;;;;;4999613;28;20037;-74
2024/02/07 10:30:31;;;;;;;16.30;6.80;;;6.20;97.50;;;;;;4997780;28;20039;-74
2024/02/07 10:32:57;;;;;;;17.08;6.18;;;6.20;97.10;;;;;;4998410;28;21248;-75
2024/02/07 10:35:23;;;;;;;13.88;5.97;;;6.20;96.90;;;;;;4996947;28;20042;-74
2024/02/07 10:37:52;;;;;;;14.60;5.85;;;6.30;96.90;;;;;;4999510;28;20045;-74
2024/02/07 10:40:19;;;;;;;15.88;6.65;;;6.30;96.70;;;;;;4999849;28;20077;-75
2024/02/07 10:42:53;;;;;;;15.77;6.35;;;6.40;96.50;;;;;;5002896;28;20064;-74
2024/02/07 10:45:19;;;;;;;15.43;5.72;;;6.40;96.40;;;;;;4985033;28;20511;-74
2024/02/07 10:47:44;;;;;;;12.10;4.55;;;6.40;95.90;;;;;;4995746;28;20018;-73
2024/02/07 10:50:10;;;;;;;13.52;4.72;;;6.50;95.90;;;;;;5013813;28;20025;-74
2024/02/07 10:52:38;;;;;;;13.32;4.80;;;6.60;96.00;;;;;;4993411;28;20018;-75
2024/02/07 10:55:06;;;;;;;9.50;4.20;;;6.70;95.80;;;;;;4999700;28;20057;-74
2024/02/07 10:57:38;;;;;;;11.15;4.28;;;6.80;95.70;;;;;;4996959;28;20043;-73
2024/02/07 11:00:05;;;;;;;8.95;4.35;;;6.90;95.40;;;;;;4996815;28;20129;-74
2024/02/07 11:02:32;;;;;;;9.93;4.13;;;7.00;95.30;;;;;;4990748;28;20013;-72
2024/02/07 11:04:59;;;;;;;12.30;4.68;;;7.00;95.10;;;;;;5001782;28;20061;-74
2024/02/07 11:07:26;;;;;;;9.55;4.03;;;7.00;95.10;;;;;;4995983;28;20021;-75
2024/02/07 11:09:53;;;;;;;9.65;3.33;;;7.00;95.00;;;;;;4989723;28;20303;-74
2024/02/07 11:12:19;;;;;;;9.20;3.47;;;7.00;94.70;;;;;;5012427;28;20354;-74
2024/02/07 11:14:46;;;;;;;15.55;4.22;;;7.00;94.60;;;;;;4999251;28;20108;-74
2024/02/07 11:17:16;;;;;;;11.40;3.60;;;6.90;94.30;;;;;;4994942;28;20033;-74
2024/02/07 11:19:43;;;;;;;11.05;3.65;;;6.80;93.60;;;;;;4988584;28;20474;-73
2024/02/07 11:22:32;;;;;;;9.90;2.85;;;6.90;93.70;;;;;;4996898;28;20033;-73
2024/02/07 11:24:59;;;;;;;11.05;3.40;;;6.90;93.80;;;;;;4991728;28;20030;-75
2024/02/07 11:27:25;;;;;;;15.07;4.35;;;7.00;94.10;;;;;;4992335;28;20108;-73
2024/02/07 11:29:52;;;;;;;14.18;3.90;;;7.10;94.20;;;;;;4994502;28;20054;-75
2024/02/07 11:32:19;;;;;;;12.32;3.65;;;7.10;93.90;;;;;;4980809;28;20022;-74
2024/02/07 11:34:52;;;;;;;12.20;3.13;;;7.10;93.50;;;;;;4985569;28;20046;-73
2024/02/07 11:37:18;;;;;;;10.88;2.55;;;7.10;93.40;;;;;;4984837;28;20026;-76
2024/02/07 11:39:44;;;;;;;15.65;3.63;;;7.10;93.50;;;;;;4989216;28;20224;-75
2024/02/07 11:42:13;;;;;;;12.00;3.00;;;7.10;92.90;;;;;;4993847;28;20092;-76
2024/02/07 11:44:53;;;;;;;8.68;2.63;;;7.10;93.10;;;;;;4991985;28;20045;-74
2024/02/07 11:47:35;;;;;;;11.18;3.28;;;7.00;92.20;;;;;;4990036;28;20026;-75
2024/02/07 11:50:04;;;;;;;11.98;2.50;;;7.10;92.10;;;;;;5002210;28;20037;-74
2024/02/07 11:52:34;;;;;;;13.60;3.58;;;7.10;92.10;;;;;;5018370;28;20450;-72
2024/02/07 11:55:11;;;;;;;9.40;2.70;;;7.10;91.90;;;;;;4995443;28;20578;-74
2024/02/07 11:57:42;;;;;;;12.27;2.85;;;7.10;91.90;;;;;;4992271;28;20034;-74
2024/02/07 12:00:15;;;;;;;11.63;3.50;;;7.10;91.40;;;;;;4992116;28;20219;-75
2024/02/07 12:02:58;;;;;;;7.07;2.30;;;7.20;91.90;;;;;;4986308;28;20394;-74
2024/02/07 12:05:25;;;;;;;9.27;2.67;;;7.20;91.70;;;;;;4988400;28;20455;-73
2024/02/07 12:07:53;;;;;;;10.63;3.63;;;7.10;91.40;;;;;;4984955;28;20063;-74
2024/02/07 12:10:19;;;;;;;7.43;2.40;;;7.20;91.80;;;;;;4987043;28;21144;-74
2024/02/07 12:12:46;;;;;;;6.63;2.42;;;7.30;91.60;;;;;;4989789;28;20227;-74
2024/02/07 12:15:12;;;;;;;11.13;2.42;;;7.30;91.40;;;;;;4992770;28;20048;-74
2024/02/07 12:17:38;;;;;;;11.70;2.85;;;7.10;91.40;;;;;;4989937;28;20042;-75
2024/02/07 12:20:04;;;;;;;9.88;2.80;;;7.10;91.50;;;;;;4978807;28;20045;-73
2024/02/07 12:22:35;;;;;;;10.52;2.53;;;7.10;91.50;;;;;;4992792;28;20022;-74
2024/02/07 12:25:02;;;;;;;11.38;2.40;;;7.10;91.70;;;;;;4987994;28;20125;-74
2024/02/07 12:27:29;;;;;;;7.63;1.98;;;7.10;91.60;;;;;;4990086;28;20112;-74
2024/02/07 12:29:57;;;;;;;8.18;2.38;;;7.10;91.40;;;;;;5004938;28;20038;-78
2024/02/07 12:32:24;;;;;;;11.27;2.35;;;7.10;91.40;;;;;;5011169;28;20018;-78
2024/02/07 12:34:50;;;;;;;7.32;1.80;;;7.10;91.80;;;;;;4993763;28;20812;-78
2024/02/07 12:37:18;;;;;;;7.40;2.55;;;7.20;92.00;;;;;;5008873;28;20041;-72
2024/02/07 12:39:48;;;;;;;7.88;2.40;;;7.20;91.70;;;;;;4992250;28;20529;-75
2024/02/07 12:42:16;;;;;;;6.90;1.80;;;7.10;91.10;;;;;;4982648;28;20029;-72
2024/02/07 12:44:42;;;;;;;6.30;1.70;;;7.10;91.50;;;;;;4991181;28;20026;-75
2024/02/07 12:47:09;;;;;;;6.38;1.65;;;7.10;91.50;;;;;;4995701;28;20022;-74
2024/02/07 12:49:35;;;;;;;6.43;1.75;;;7.10;91.80;;;;;;4992858;28;20069;-73
2024/02/07 12:52:02;;;;;;;5.93;1.80;;;7.10;92.20;;;;;;5001091;28;20057;-73
2024/02/07 12:54:28;;;;;;;10.55;2.42;;;7.10;92.30;;;;;;4993771;28;20128;-74
2024/02/07 12:56:54;;;;;;;8.48;2.20;;;7.20;92.30;;;;;;5003105;28;20028;-74
2024/02/07 12:59:28;;;;;;;8.00;2.08;;;7.30;92.60;;;;;;4995831;28;20064;-71
2024/02/07 13:01:55;;;;;;;10.07;2.22;;;7.50;92.80;;;;;;4997553;28;20033;-72
2024/02/07 13:04:21;;;;;;;8.38;2.38;;;7.40;92.50;;;;;;4993189;28;20026;-73
2024/02/07 13:06:46;;;;;;;14.05;2.90;;;7.50;92.70;;;;;;5001074;28;20022;-76
2024/02/07 13:09:12;;;;;;;9.93;2.38;;;7.60;92.80;;;;;;4994704;28;20021;-73
2024/02/07 13:11:37;;;;;;;9.48;2.90;;;7.50;92.40;;;;;;4999024;28;20049;-74
2024/02/07 13:14:03;;;;;;;4.65;1.77;;;7.30;92.30;;;;;;4989860;28;20041;-76
2024/02/07 13:16:32;;;;;;;8.18;1.83;;;7.30;92.60;;;;;;4995523;28;20034;-73
2024/02/07 13:18:58;;;;;;;7.50;2.30;;;7.30;92.60;;;;;;4999560;28;20038;-73
2024/02/07 13:21:24;;;;;;;7.32;2.33;;;7.40;92.70;;;;;;4996294;28;20490;-74
2024/02/07 13:23:49;;;;;;;9.60;2.58;;;7.50;92.70;;;;;;4997287;28;20022;-75
2024/02/07 13:26:21;;;;;;;8.88;2.17;;;7.40;92.90;;;;;;4984076;28;20030;-75
2024/02/07 13:28:47;;;;;;;8.60;2.50;;;7.40;92.60;;;;;;4997554;28;20060;-78
2024/02/07 13:31:13;;;;;;;7.60;2.63;;;7.50;92.90;;;;;;4983307;28;20053;-74
2024/02/07 13:33:38;;;;;;;8.23;1.95;;;7.60;93.00;;;;;;4995666;28;21770;-77
2024/02/07 13:36:04;;;;;;;7.15;2.60;;;7.60;93.00;;;;;;4987804;28;20069;-76
2024/02/07 13:38:30;;;;;;;7.70;2.30;;;7.80;92.90;;;;;;4996391;28;20038;-74
2024/02/07 13:40:56;;;;;;;12.68;5.57;;;7.60;92.50;;;;;;4997075;28;20034;-80
2024/02/07 13:43:22;;;;;;;8.45;4.63;;;7.60;92.60;;;;;;4997667;28;20019;-75
2024/02/07 13:45:47;;;;;;;7.82;2.88;;;7.50;92.50;;;;;;4993076;28;20046;-74
2024/02/07 13:48:13;;;;;;;10.25;6.50;;;7.50;92.70;;;;;;4992620;28;20021;-75